sensor_id;sensor_type;location;lat;lon;timestamp;P1;durP1;ratioP1;P2;durP2;ratioP2
76560;SDS011;66829;44.542;0.048;2023-02-08T00:02:25;3.27;;;1.90;;
76560;SDS011;66829;44.542;0.048;2023-02-08T00:12:56;4.83;;;1.93;;
76560;SDS011;66829;44.542;0.048;2023-02-08T00:23:28;-1.00;;;-1.00;;
76560;SDS011;66829;44.542;0.048;2023-02-08T00:33:58;4.87;;;2.23;;
76560;SDS011;66829;44.542;0.048;2023-02-08T00:55:00;3.73;;;1.80;;
76560;SDS011;66829;44.542;0.048;2023-02-08T01:05:30;4.10;;;2.60;;
76560;SDS011;66829;44.542;0.048;2023-02-08T01:16:05;3.17;;;1.47;;
76560;SDS011;66829;44.542;0.048;2023-02-08T01:26:33;3.60;;;1.97;;
76560;SDS011;66829;44.542;0.048;2023-02-08T01:37:04;4.27;;;1.90;;
76560;SDS011;66829;44.542;0.048;2023-02-08T01:47:35;3.87;;;2.30;;
76560;SDS011;66829;44.542;0.048;2023-02-08T02:08:34;4.43;;;2.57;;
76560;SDS011;66829;44.542;0.048;2023-02-08T02:19:06;4.00;;;2.17;;
76560;SDS011;66829;44.542;0.048;2023-02-08T02:29:49;11.03;;;2.33;;
76560;SDS011;66829;44.542;0.048;2023-02-08T02:40:09;3.23;;;1.53;;
76560;SDS011;66829;44.542;0.048;2023-02-08T03:22:12;6.50;;;2.00;;
76560;SDS011;66829;44.542;0.048;2023-02-08T03:32:42;3.87;;;1.73;;
76560;SDS011;66829;44.542;0.048;2023-02-08T03:43:13;2.40;;;1.63;;
76560;SDS011;66829;44.542;0.048;2023-02-08T03:53:43;8.40;;;2.33;;
76560;SDS011;66829;44.542;0.048;2023-02-08T04:04:16;2.07;;;1.43;;
76560;SDS011;66829;44.542;0.048;2023-02-08T04:14:48;3.40;;;2.00;;
76560;SDS011;66829;44.542;0.048;2023-02-08T04:25:20;4.60;;;2.33;;
76560;SDS011;66829;44.542;0.048;2023-02-08T04:35:49;2.23;;;1.90;;
76560;SDS011;66829;44.542;0.048;2023-02-08T04:46:21;2.77;;;1.67;;
76560;SDS011;66829;44.542;0.048;2023-02-08T04:56:51;2.73;;;1.83;;
76560;SDS011;66829;44.542;0.048;2023-02-08T05:07:21;5.60;;;2.00;;
76560;SDS011;66829;44.542;0.048;2023-02-08T05:17:53;3.40;;;2.20;;
76560;SDS011;66829;44.542;0.048;2023-02-08T05:28:23;2.97;;;1.57;;
76560;SDS011;66829;44.542;0.048;2023-02-08T05:38:54;2.70;;;2.07;;
76560;SDS011;66829;44.542;0.048;2023-02-08T05:49:26;3.27;;;1.83;;
76560;SDS011;66829;44.542;0.048;2023-02-08T05:59:55;2.40;;;1.60;;
76560;SDS011;66829;44.542;0.048;2023-02-08T06:10:27;5.40;;;2.10;;
76560;SDS011;66829;44.542;0.048;2023-02-08T06:20:59;6.00;;;2.07;;
76560;SDS011;66829;44.542;0.048;2023-02-08T06:42:02;2.97;;;2.27;;
76560;SDS011;66829;44.542;0.048;2023-02-08T06:52:33;1.70;;;1.60;;
76560;SDS011;66829;44.542;0.048;2023-02-08T07:03:03;1.70;;;1.43;;
76560;SDS011;66829;44.542;0.048;2023-02-08T07:13:36;1.40;;;1.30;;
76560;SDS011;66829;44.542;0.048;2023-02-08T07:24:07;0.77;;;0.60;;
76560;SDS011;66829;44.542;0.048;2023-02-08T07:34:40;1.70;;;1.57;;
76560;SDS011;66829;44.542;0.048;2023-02-08T07:45:09;10.57;;;3.60;;
76560;SDS011;66829;44.542;0.048;2023-02-08T07:55:43;3.60;;;1.57;;
76560;SDS011;66829;44.542;0.048;2023-02-08T08:06:13;11.17;;;4.07;;
76560;SDS011;66829;44.542;0.048;2023-02-08T08:16:44;10.73;;;2.67;;
76560;SDS011;66829;44.542;0.048;2023-02-08T08:27:20;6.27;;;3.27;;
76560;SDS011;66829;44.542;0.048;2023-02-08T08:37:47;5.53;;;2.70;;
76560;SDS011;66829;44.542;0.048;2023-02-08T08:48:18;6.80;;;3.20;;
76560;SDS011;66829;44.542;0.048;2023-02-08T08:58:51;9.80;;;3.30;;
76560;SDS011;66829;44.542;0.048;2023-02-08T09:09:27;5.20;;;3.17;;
76560;SDS011;66829;44.542;0.048;2023-02-08T09:20:04;9.20;;;3.80;;
76560;SDS011;66829;44.542;0.048;2023-02-08T09:41:13;6.17;;;4.17;;
76560;SDS011;66829;44.542;0.048;2023-02-08T09:51:42;4.93;;;3.90;;
76560;SDS011;66829;44.542;0.048;2023-02-08T10:02:13;7.17;;;4.90;;
76560;SDS011;66829;44.542;0.048;2023-02-08T10:12:42;2.47;;;1.73;;
76560;SDS011;66829;44.542;0.048;2023-02-08T10:23:23;6.37;;;4.03;;
76560;SDS011;66829;44.542;0.048;2023-02-08T10:33:44;7.07;;;4.10;;
76560;SDS011;66829;44.542;0.048;2023-02-08T10:44:16;6.70;;;4.43;;
76560;SDS011;66829;44.542;0.048;2023-02-08T10:54:45;2.90;;;2.23;;
76560;SDS011;66829;44.542;0.048;2023-02-08T11:05:16;8.10;;;5.07;;
76560;SDS011;66829;44.542;0.048;2023-02-08T11:15:50;6.00;;;4.50;;
76560;SDS011;66829;44.542;0.048;2023-02-08T11:26:22;5.50;;;3.20;;
76560;SDS011;66829;44.542;0.048;2023-02-08T11:47:22;4.60;;;2.97;;
76560;SDS011;66829;44.542;0.048;2023-02-08T11:57:52;5.77;;;2.73;;
76560;SDS011;66829;44.542;0.048;2023-02-08T12:08:28;4.40;;;2.67;;
76560;SDS011;66829;44.542;0.048;2023-02-08T12:18:59;4.40;;;2.83;;
76560;SDS011;66829;44.542;0.048;2023-02-08T12:29:29;3.33;;;2.60;;
76560;SDS011;66829;44.542;0.048;2023-02-08T12:40:11;3.60;;;2.93;;
76560;SDS011;66829;44.542;0.048;2023-02-08T12:50:32;4.97;;;3.00;;
76560;SDS011;66829;44.542;0.048;2023-02-08T13:01:17;3.97;;;3.00;;
76560;SDS011;66829;44.542;0.048;2023-02-08T13:11:32;5.13;;;3.60;;
76560;SDS011;66829;44.542;0.048;2023-02-08T13:22:08;5.27;;;3.33;;
76560;SDS011;66829;44.542;0.048;2023-02-08T13:32:34;5.23;;;3.37;;
76560;SDS011;66829;44.542;0.048;2023-02-08T13:43:06;5.30;;;3.20;;
76560;SDS011;66829;44.542;0.048;2023-02-08T14:14:38;5.70;;;2.80;;
76560;SDS011;66829;44.542;0.048;2023-02-08T14:25:15;5.20;;;3.47;;
76560;SDS011;66829;44.542;0.048;2023-02-08T14:35:49;4.23;;;2.80;;
76560;SDS011;66829;44.542;0.048;2023-02-08T15:07:23;3.80;;;2.33;;
76560;SDS011;66829;44.542;0.048;2023-02-08T15:17:45;3.37;;;2.20;;
76560;SDS011;66829;44.542;0.048;2023-02-08T15:28:17;2.83;;;2.20;;
76560;SDS011;66829;44.542;0.048;2023-02-08T15:38:47;5.67;;;3.00;;
76560;SDS011;66829;44.542;0.048;2023-02-08T15:49:18;4.30;;;2.27;;
76560;SDS011;66829;44.542;0.048;2023-02-08T15:59:47;5.00;;;2.70;;
76560;SDS011;66829;44.542;0.048;2023-02-08T16:41:58;3.03;;;2.20;;
76560;SDS011;66829;44.542;0.048;2023-02-08T16:52:24;5.07;;;2.87;;
76560;SDS011;66829;44.542;0.048;2023-02-08T17:02:49;-1.00;;;-1.00;;
76560;SDS011;66829;44.542;0.048;2023-02-08T17:13:18;7.83;;;3.57;;
76560;SDS011;66829;44.542;0.048;2023-02-08T17:23:46;8.47;;;2.90;;
76560;SDS011;66829;44.542;0.048;2023-02-08T17:34:17;-1.00;;;-1.00;;
76560;SDS011;66829;44.542;0.048;2023-02-08T17:44:45;5.73;;;3.10;;
76560;SDS011;66829;44.542;0.048;2023-02-08T17:55:16;4.63;;;2.50;;
76560;SDS011;66829;44.542;0.048;2023-02-08T18:05:46;3.53;;;1.90;;
76560;SDS011;66829;44.542;0.048;2023-02-08T18:16:17;3.17;;;1.80;;
76560;SDS011;66829;44.542;0.048;2023-02-08T18:37:17;10.53;;;3.90;;
76560;SDS011;66829;44.542;0.048;2023-02-08T18:47:47;20.30;;;8.50;;
76560;SDS011;66829;44.542;0.048;2023-02-08T18:58:18;22.27;;;9.87;;
76560;SDS011;66829;44.542;0.048;2023-02-08T19:08:49;19.70;;;7.83;;
76560;SDS011;66829;44.542;0.048;2023-02-08T19:19:19;13.33;;;5.83;;
76560;SDS011;66829;44.542;0.048;2023-02-08T19:29:52;17.67;;;5.93;;
76560;SDS011;66829;44.542;0.048;2023-02-08T19:40:20;13.17;;;5.60;;
76560;SDS011;66829;44.542;0.048;2023-02-08T19:50:53;9.17;;;4.80;;
76560;SDS011;66829;44.542;0.048;2023-02-08T20:01:22;15.57;;;6.23;;
76560;SDS011;66829;44.542;0.048;2023-02-08T20:11:53;12.80;;;6.07;;
76560;SDS011;66829;44.542;0.048;2023-02-08T20:22:24;9.90;;;5.70;;
76560;SDS011;66829;44.542;0.048;2023-02-08T20:32:55;16.17;;;6.13;;
76560;SDS011;66829;44.542;0.048;2023-02-08T20:43:25;12.13;;;6.03;;
76560;SDS011;66829;44.542;0.048;2023-02-08T20:53:56;14.30;;;5.53;;
76560;SDS011;66829;44.542;0.048;2023-02-08T21:04:26;6.67;;;3.17;;
76560;SDS011;66829;44.542;0.048;2023-02-08T21:14:56;13.57;;;5.87;;
76560;SDS011;66829;44.542;0.048;2023-02-08T21:25:27;17.00;;;8.00;;
76560;SDS011;66829;44.542;0.048;2023-02-08T21:36:00;18.17;;;7.87;;
76560;SDS011;66829;44.542;0.048;2023-02-08T21:46:30;23.87;;;8.10;;
76560;SDS011;66829;44.542;0.048;2023-02-08T21:57:01;28.83;;;8.87;;
76560;SDS011;66829;44.542;0.048;2023-02-08T22:18:02;22.77;;;9.13;;
76560;SDS011;66829;44.542;0.048;2023-02-08T22:39:05;14.53;;;5.73;;
76560;SDS011;66829;44.542;0.048;2023-02-08T22:49:37;25.20;;;9.10;;
76560;SDS011;66829;44.542;0.048;2023-02-08T23:00:11;12.93;;;5.73;;
76560;SDS011;66829;44.542;0.048;2023-02-08T23:10:39;19.50;;;8.80;;
76560;SDS011;66829;44.542;0.048;2023-02-08T23:21:14;19.63;;;8.40;;
76560;SDS011;66829;44.542;0.048;2023-02-08T23:31:42;15.03;;;6.90;;
